Weather at Williamsport Regional Airport

Public forecast

Using degrees Fahrenheit for public forecast. Weather courtesy of forecast.io.

Current aviation weather report (METAR) for Williamsport Regional Airport

Retrieved 2020/10/25 06:54 UTC (42 minutes ago):

KIPT 250654Z AUTO 01003KT 10SM BKN033 07/M01 A3017 RMK AO2 SLP218 T00671006

Aviation forecast (TAF) for Williamsport Regional Airport

Retrieved 2020/10/25 06:36 UTC (1 hour ago):

TAF KIPT 250535Z 2506/2606 35003KT P6SM BKN035 FM250900 32003KT P6SM SCT015 FM251700 08004KT P6SM BKN080 FM260100 09004KT P6SM BKN025 FM260500 10004KT 5SM -SHRA BR OVC009